Aérodrome :
LOGIN :

S'inscrire | Disclaimer

   EN    FR    IT 

 










Légende :    VFR   VFR Marginal   IFR   IFR Intensif   IFR Très Intensif
Visi : 
Plafond : 
>= 8 km
>= 3000ft
5 à 8 km
1000 à 3000 ft
1500m à 5 km
500 à 1000 ft
800 à 1500m
200 à 500 ft
< 800m
< 200 ft
Symboles :   Orages  Brouillard  Fortes neiges  Fortes précipitations  Vent > 20 kt
SIGMETs :   Divers  Orages  Givrage  Turbulence  Onde Orograph.  Cendres Volcan.






- Altitude de l'aérodrome : 353 ft
- Code IATA : ZAG


LDZA - Zagreb Pleso

DERNIER METAR :
  • 231430Z 18003KT 140V220 9999 FEW013 SCT036 02/M01 Q1031 NOSIG

METARs EXPIRÉS :
  • 231400Z 22003KT 180V250 9999 FEW027 02/M01 Q1030 NOSIG
  • 231330Z VRB02KT 9999 FEW021 02/M01 Q1030 NOSIG
  • 231300Z VRB02KT 9999 FEW021 02/M01 Q1031 NOSIG
  • 231230Z VRB02KT 9999 FEW018 02/M00 Q1030 NOSIG
  • 231200Z 04003KT 360V080 9999 FEW020 BKN047 02/M00 Q1031 NOSIG

TAF TAF LDZA
Valide du 23 à 12h jusqu'au 24 à 12h UTC


231125Z 2312/2412 VRB02KT 8000 SCT020 BKN035 TX02/2312Z TNM01/2403Z
TEMPO 2316/2408 4000 -SN BKN010 OVC025
PROB40
TEMPO 2318/2402 1500 SN BKN004 OVC015
ATIS : +385 1 6-259-214



MET'MAP, la Météo Aéronautique d'un coup d'oeil ! - Copyright ORBIFLY Décembre 2007 - Disclaimer

ORBIFLY MET'MAP TEAM :

Programmation & Développement : Alexandra Zaïnal
Sur une idée originale de : Baudouin d'Aumeries
Assistance à la programmation : Marc-Olivier Méhu
Soutien technique & logistique : Manuel Goepfert

Contact : metmap@orbifly.com




SOURCES & CREDITS :

   NOAA